createdAt,value
2023-04-14T00:00:26.801Z,10.07
2023-04-14T00:03:16.968Z,10.01
2023-04-14T00:06:07.159Z,10.00
2023-04-14T00:08:56.450Z,9.97
2023-04-14T00:11:45.785Z,9.93
2023-04-14T00:14:36.395Z,9.93
2023-04-14T00:17:25.907Z,9.89
2023-04-14T00:20:15.609Z,9.87
2023-04-14T00:23:04.839Z,9.92
2023-04-14T00:25:53.964Z,9.94
2023-04-14T00:28:43.127Z,9.92
2023-04-14T00:31:33.774Z,9.88
2023-04-14T00:34:23.345Z,9.85
2023-04-14T00:37:13.025Z,9.80
2023-04-14T00:40:02.294Z,9.86
2023-04-14T00:42:51.816Z,9.78
2023-04-14T00:45:46.861Z,9.88
2023-04-14T00:48:37.807Z,9.89
2023-04-14T00:51:28.285Z,9.85
2023-04-14T00:54:20.973Z,9.84
2023-04-14T00:57:11.093Z,9.81
2023-04-14T01:00:02.096Z,9.81
2023-04-14T01:02:51.769Z,9.77
2023-04-14T01:05:42.754Z,9.76
2023-04-14T01:08:32.361Z,9.82
2023-04-14T01:11:33.313Z,9.85
2023-04-14T01:14:43.338Z,9.86
2023-04-14T01:17:38.868Z,9.79
2023-04-14T01:20:34.656Z,9.66
2023-04-14T01:23:32.192Z,9.73
2023-04-14T01:26:27.771Z,9.65
2023-04-14T01:29:51.595Z,9.67
2023-04-14T01:32:47.430Z,9.61
2023-04-14T01:35:41.308Z,9.61
2023-04-14T01:38:36.444Z,9.49
2023-04-14T01:41:29.786Z,9.52
2023-04-14T01:44:22.430Z,9.48
2023-04-14T01:47:16.759Z,9.47
2023-04-14T01:50:11.102Z,9.43
2023-04-14T01:53:02.499Z,9.38
2023-04-14T01:55:54.447Z,9.34
2023-04-14T01:58:45.953Z,9.35
2023-04-14T02:01:37.554Z,9.28
2023-04-14T02:04:30.451Z,9.17
2023-04-14T02:07:23.415Z,9.12
2023-04-14T02:10:20.177Z,9.07
2023-04-14T02:13:11.806Z,9.04
2023-04-14T02:16:03.075Z,9.04
2023-04-14T02:18:52.781Z,9.00
2023-04-14T02:21:43.794Z,8.86
2023-04-14T02:24:34.740Z,8.99
2023-04-14T02:27:32.479Z,8.97
2023-04-14T02:30:29.109Z,8.92
2023-04-14T02:33:23.330Z,8.81
2023-04-14T02:36:19.313Z,8.76
2023-04-14T02:39:17.954Z,8.72
2023-04-14T02:42:15.143Z,8.67
2023-04-14T02:45:09.452Z,8.61
2023-04-14T02:48:04.847Z,8.63
2023-04-14T02:50:57.302Z,8.58
2023-04-14T02:53:50.644Z,8.62
2023-04-14T02:56:52.290Z,8.59
2023-04-14T02:59:48.972Z,8.61
2023-04-14T03:02:40.540Z,8.57
2023-04-14T03:05:33.397Z,8.58
2023-04-14T03:08:29.258Z,8.56
2023-04-14T03:11:20.009Z,8.58
2023-04-14T03:14:09.687Z,8.57
2023-04-14T03:17:02.221Z,8.57
2023-04-14T03:19:53.559Z,8.53
2023-04-14T03:22:44.293Z,8.51
2023-04-14T03:25:38.228Z,8.63
2023-04-14T03:28:35.562Z,8.54
2023-04-14T03:31:34.890Z,8.48
2023-04-14T03:34:29.589Z,8.48
2023-04-14T03:37:21.818Z,8.36
2023-04-14T03:40:12.661Z,8.23
2023-04-14T03:43:05.342Z,8.38
2023-04-14T03:45:54.648Z,8.33
2023-04-14T03:48:48.998Z,8.37
2023-04-14T03:51:43.525Z,8.31
2023-04-14T03:54:36.012Z,8.29
2023-04-14T03:57:29.321Z,8.26
2023-04-14T04:00:19.809Z,8.32
2023-04-14T04:03:11.669Z,8.25
2023-04-14T04:06:01.549Z,8.20
2023-04-14T04:08:54.690Z,8.21
2023-04-14T04:11:44.975Z,8.22
2023-04-14T04:14:38.598Z,8.14
2023-04-14T04:17:33.841Z,8.13
2023-04-14T04:20:26.691Z,8.09
2023-04-14T04:23:19.605Z,8.12
2023-04-14T04:26:11.005Z,8.10
2023-04-14T04:29:01.754Z,8.03
2023-04-14T04:31:54.525Z,8.02
2023-04-14T04:34:46.619Z,7.92
2023-04-14T04:37:36.690Z,7.97
2023-04-14T04:40:26.723Z,7.94
2023-04-14T04:43:19.049Z,7.85
2023-04-14T04:46:30.905Z,7.90
2023-04-14T04:49:21.321Z,7.79
2023-04-14T04:52:10.558Z,7.82
2023-04-14T04:54:59.869Z,7.77
2023-04-14T04:57:49.212Z,7.76
2023-04-14T05:00:39.983Z,7.71
2023-04-14T05:03:29.223Z,7.67
2023-04-14T05:06:18.544Z,7.64
2023-04-14T05:09:08.015Z,7.58
2023-04-14T05:11:57.424Z,7.53
2023-04-14T05:14:46.604Z,7.46
2023-04-14T05:17:38.862Z,7.39
2023-04-14T05:20:28.084Z,7.37
2023-04-14T05:23:17.308Z,7.29
2023-04-14T05:29:04.135Z,7.19
2023-04-14T05:31:53.766Z,7.18
2023-04-14T05:34:44.366Z,7.20
2023-04-14T05:37:35.031Z,7.22
2023-04-14T05:40:25.556Z,7.21
2023-04-14T05:43:15.506Z,7.11
2023-04-14T05:46:04.867Z,7.13
2023-04-14T05:48:54.090Z,7.09
2023-04-14T05:51:44.845Z,6.96
2023-04-14T05:54:34.396Z,7.01
2023-04-14T05:57:23.896Z,7.04
2023-04-14T06:00:14.942Z,7.01
2023-04-14T06:03:05.012Z,7.00
2023-04-14T06:05:54.383Z,7.00
2023-04-14T06:08:45.034Z,7.00
2023-04-14T06:11:34.367Z,6.99
2023-04-14T06:14:23.569Z,6.96
2023-04-14T06:17:12.937Z,7.01
2023-04-14T06:20:02.467Z,7.05
2023-04-14T06:22:51.796Z,7.04
2023-04-14T06:25:42.717Z,7.00
2023-04-14T06:28:31.897Z,7.09
2023-04-14T06:31:21.292Z,7.14
2023-04-14T06:34:10.661Z,7.20
2023-04-14T06:37:01.598Z,7.21
2023-04-14T06:39:50.799Z,7.27
2023-04-14T06:42:41.446Z,7.28
2023-04-14T06:45:30.671Z,7.40
2023-04-14T06:48:20.376Z,7.48
2023-04-14T06:51:12.394Z,7.54
2023-04-14T06:54:02.214Z,7.57
2023-04-14T06:56:51.727Z,7.65
2023-04-14T06:59:42.312Z,7.80
2023-04-14T07:02:31.806Z,7.93
2023-04-14T07:05:21.068Z,8.15
2023-04-14T07:08:10.440Z,8.39
2023-04-14T07:11:02.797Z,8.71
2023-04-14T07:13:52.120Z,9.03
2023-04-14T07:16:42.700Z,9.45
2023-04-14T07:19:32.652Z,9.84
2023-04-14T07:22:21.911Z,10.20
2023-04-14T07:25:11.879Z,10.56
2023-04-14T07:28:03.612Z,10.49
2023-04-14T07:30:54.414Z,10.79
2023-04-14T07:33:45.016Z,10.95
2023-04-14T07:36:34.681Z,11.08
2023-04-14T07:39:23.984Z,11.10
2023-04-14T07:42:14.315Z,11.02
2023-04-14T07:45:04.371Z,10.86
2023-04-14T07:47:55.745Z,10.82
2023-04-14T07:50:49.981Z,11.04
2023-04-14T07:53:42.946Z,11.19
2023-04-14T07:56:32.448Z,11.34
2023-04-14T07:59:21.904Z,11.41
2023-04-14T08:02:11.872Z,11.37
2023-04-14T08:05:01.254Z,11.48
2023-04-14T08:07:52.113Z,11.48
2023-04-14T08:10:43.190Z,11.49
2023-04-14T08:13:32.484Z,11.67
2023-04-14T08:16:22.786Z,11.83
2023-04-14T08:19:12.387Z,11.94
2023-04-14T08:22:01.601Z,11.99
2023-04-14T08:24:52.549Z,12.06
2023-04-14T08:27:41.767Z,12.19
2023-04-14T08:30:31.080Z,12.58
2023-04-14T08:33:20.438Z,12.82
2023-04-14T08:36:09.871Z,12.88
2023-04-14T08:39:01.281Z,12.62
2023-04-14T08:41:53.558Z,12.64
2023-04-14T08:44:42.794Z,12.54
2023-04-14T08:47:33.127Z,12.55
2023-04-14T08:50:26.943Z,12.43
2023-04-14T08:53:17.531Z,12.49
2023-04-14T08:56:09.571Z,12.73
2023-04-14T08:59:01.922Z,13.19
2023-04-14T09:01:51.442Z,13.76
2023-04-14T09:04:42.078Z,14.19
2023-04-14T09:07:32.338Z,14.81
2023-04-14T09:10:23.883Z,15.27
2023-04-14T09:13:15.412Z,15.71
2023-04-14T09:16:07.153Z,15.63
2023-04-14T09:18:59.493Z,15.32
2023-04-14T09:21:56.958Z,15.05
2023-04-14T09:24:46.536Z,14.71
2023-04-14T09:27:36.314Z,14.52
2023-04-14T09:30:26.261Z,14.69
2023-04-14T09:33:24.896Z,14.84
2023-04-14T09:36:21.194Z,14.60
2023-04-14T09:39:19.212Z,15.11
2023-04-14T09:42:08.535Z,15.86
2023-04-14T09:45:01.514Z,15.99
2023-04-14T09:48:06.824Z,16.46
2023-04-14T09:51:03.564Z,16.72
2023-04-14T09:53:55.270Z,16.73
2023-04-14T09:56:47.636Z,17.03
2023-04-14T09:59:39.310Z,17.24
2023-04-14T10:02:28.754Z,17.67
2023-04-14T10:05:22.077Z,18.30
2023-04-14T10:08:13.007Z,18.72
2023-04-14T10:11:17.172Z,19.02
2023-04-14T10:14:07.538Z,19.11
2023-04-14T10:16:56.850Z,19.05
2023-04-14T10:19:46.122Z,19.29
2023-04-14T10:22:36.422Z,19.13
2023-04-14T10:25:27.915Z,18.59
2023-04-14T10:28:17.626Z,18.50
2023-04-14T10:31:13.339Z,18.65
2023-04-14T10:34:10.900Z,19.28
2023-04-14T10:37:14.289Z,19.21
2023-04-14T10:40:07.128Z,19.28
2023-04-14T10:42:57.999Z,19.27
2023-04-14T10:45:55.550Z,19.33
2023-04-14T10:48:50.193Z,19.74
2023-04-14T10:51:39.420Z,19.97
2023-04-14T10:54:48.995Z,20.51
2023-04-14T10:57:42.293Z,19.29
2023-04-14T11:00:38.558Z,18.78
2023-04-14T11:03:33.351Z,18.36
2023-04-14T11:06:53.056Z,17.85
2023-04-14T11:09:43.903Z,18.47
2023-04-14T11:12:43.322Z,19.20
2023-04-14T11:15:49.150Z,19.87
2023-04-14T11:18:45.329Z,19.98
2023-04-14T11:21:35.519Z,19.53
2023-04-14T11:24:25.759Z,18.54
2023-04-14T11:27:15.132Z,17.67
2023-04-14T11:30:07.183Z,18.08
2023-04-14T11:32:59.704Z,18.72
2023-04-14T11:35:49.111Z,18.85
2023-04-14T11:38:40.680Z,18.50
2023-04-14T11:41:30.744Z,18.32
2023-04-14T11:44:20.825Z,18.62
2023-04-14T11:47:10.108Z,18.28
2023-04-14T11:50:04.941Z,17.62
2023-04-14T11:52:55.426Z,17.57
2023-04-14T11:55:46.529Z,18.22
2023-04-14T11:58:38.393Z,18.84
2023-04-14T12:01:27.898Z,19.18
2023-04-14T12:04:19.763Z,19.03
2023-04-14T12:07:14.706Z,18.38
2023-04-14T12:10:06.781Z,19.12
2023-04-14T12:13:03.457Z,18.83
2023-04-14T12:15:53.089Z,18.80
2023-04-14T12:18:42.736Z,18.17
2023-04-14T12:21:31.986Z,17.35
2023-04-14T12:24:22.711Z,17.59
2023-04-14T12:27:12.813Z,18.18
2023-04-14T12:30:02.194Z,18.55
2023-04-14T12:32:51.746Z,19.27
2023-04-14T12:35:41.642Z,20.18
2023-04-14T12:38:31.260Z,20.85
2023-04-14T12:41:26.634Z,20.83
2023-04-14T12:44:18.296Z,20.27
2023-04-14T12:47:07.655Z,19.71
2023-04-14T12:49:58.622Z,19.04
2023-04-14T12:52:47.873Z,18.63
2023-04-14T12:55:38.334Z,18.49
2023-04-14T12:58:31.376Z,18.52
2023-04-14T13:01:22.090Z,19.20
2023-04-14T13:04:11.830Z,19.46
2023-04-14T13:07:01.132Z,19.59
2023-04-14T13:09:51.595Z,19.64
2023-04-14T13:12:42.125Z,20.17
2023-04-14T13:16:15.423Z,20.58
2023-04-14T13:18:42.015Z,20.98
2023-04-14T13:21:31.263Z,20.39
2023-04-14T13:24:20.734Z,19.94
2023-04-14T13:27:10.211Z,19.49
2023-04-14T13:29:59.489Z,19.02
2023-04-14T13:32:50.219Z,18.02
2023-04-14T13:35:39.569Z,17.89
2023-04-14T13:38:28.895Z,18.08
2023-04-14T13:41:19.643Z,18.45
2023-04-14T13:44:09.184Z,18.43
2023-04-14T13:46:58.375Z,18.50
2023-04-14T13:49:49.261Z,18.29
2023-04-14T13:52:38.421Z,18.30
2023-04-14T13:55:27.827Z,18.34
2023-04-14T13:58:17.014Z,18.25
2023-04-14T14:01:13.458Z,17.63
2023-04-14T14:04:02.932Z,17.31
2023-04-14T14:06:54.874Z,17.13
2023-04-14T14:09:44.500Z,17.46
2023-04-14T14:12:33.681Z,17.98
2023-04-14T14:15:23.521Z,18.24
2023-04-14T14:18:13.769Z,18.87
2023-04-14T14:21:03.180Z,19.41
2023-04-14T14:23:53.712Z,20.00
2023-04-14T14:26:42.930Z,20.37
2023-04-14T14:29:32.111Z,20.65
2023-04-14T14:32:21.315Z,20.79
2023-04-14T14:35:11.385Z,20.37
2023-04-14T14:38:01.006Z,19.33
2023-04-14T14:40:52.114Z,18.50
2023-04-14T14:43:41.296Z,18.27
2023-04-14T14:46:30.953Z,18.57
2023-04-14T14:49:21.079Z,19.16
2023-04-14T14:52:10.393Z,19.69
2023-04-14T14:54:59.575Z,20.06
2023-04-14T14:57:51.144Z,19.96
2023-04-14T15:00:40.379Z,20.03
2023-04-14T15:03:29.835Z,20.21
2023-04-14T15:06:19.048Z,19.81
2023-04-14T15:09:08.413Z,20.01
2023-04-14T15:11:58.231Z,19.80
2023-04-14T15:14:49.096Z,19.55
2023-04-14T15:17:38.331Z,19.12
2023-04-14T15:20:27.678Z,18.77
2023-04-14T15:23:17.644Z,19.11
2023-04-14T15:26:07.085Z,19.49
2023-04-14T15:28:56.474Z,19.64
2023-04-14T15:31:47.468Z,20.04
2023-04-14T15:34:36.765Z,20.31
2023-04-14T15:37:26.517Z,20.37
2023-04-14T15:40:15.798Z,19.99
2023-04-14T15:43:05.105Z,19.55
2023-04-14T15:45:54.315Z,19.30
2023-04-14T15:48:45.080Z,19.34
2023-04-14T15:51:34.290Z,19.03
2023-04-14T15:54:24.564Z,18.82
2023-04-14T15:57:13.866Z,18.50
2023-04-14T16:00:07.365Z,18.52
2023-04-14T16:03:03.181Z,18.72
2023-04-14T16:06:02.901Z,18.76
2023-04-14T16:08:52.112Z,18.97
2023-04-14T16:11:41.488Z,18.96
2023-04-14T16:14:35.180Z,18.94
2023-04-14T16:17:25.660Z,18.54
2023-04-14T16:20:15.053Z,18.06
2023-04-14T16:23:05.709Z,18.08
2023-04-14T16:25:55.012Z,17.68
2023-04-14T16:28:47.279Z,17.50
2023-04-14T16:31:36.560Z,17.56
2023-04-14T16:34:26.435Z,17.56
2023-04-14T16:37:16.136Z,17.49
2023-04-14T16:40:08.623Z,17.67
2023-04-14T16:42:57.954Z,17.44
2023-04-14T16:45:47.297Z,17.16
2023-04-14T16:48:37.230Z,16.93
2023-04-14T16:51:27.482Z,16.77
2023-04-14T16:54:16.851Z,16.57
2023-04-14T16:57:07.809Z,16.68
2023-04-14T16:59:57.140Z,16.43
2023-04-14T17:02:46.780Z,16.36
2023-04-14T17:05:36.288Z,16.16
2023-04-14T17:08:25.872Z,15.96
2023-04-14T17:11:16.164Z,15.88
2023-04-14T17:14:08.280Z,15.68
2023-04-14T17:16:57.826Z,15.66
2023-04-14T17:19:47.052Z,15.63
2023-04-14T17:22:36.830Z,15.37
2023-04-14T17:25:28.034Z,15.17
2023-04-14T17:28:17.202Z,15.07
2023-04-14T17:31:13.420Z,14.64
2023-04-14T17:34:04.219Z,14.69
2023-04-14T17:36:54.058Z,14.75
2023-04-14T17:39:43.400Z,14.82
2023-04-14T17:42:34.346Z,14.48
2023-04-14T17:45:24.083Z,14.68
2023-04-14T17:48:14.710Z,14.64
2023-04-14T17:51:04.829Z,14.63
2023-04-14T17:53:54.162Z,14.74
2023-04-14T17:56:43.472Z,14.67
2023-04-14T17:59:33.125Z,14.77
2023-04-14T18:02:22.512Z,14.73
2023-04-14T18:05:13.999Z,14.65
2023-04-14T18:08:03.292Z,14.73
2023-04-14T18:10:52.490Z,14.64
2023-04-14T18:13:41.625Z,14.35
2023-04-14T18:16:31.434Z,14.35
2023-04-14T18:19:20.893Z,14.34
2023-04-14T18:22:11.704Z,14.43
2023-04-14T18:25:01.169Z,14.47
2023-04-14T18:30:53.142Z,14.58
2023-04-14T18:33:42.489Z,14.42
2023-04-14T18:36:32.425Z,14.54
2023-04-14T18:39:23.017Z,14.58
2023-04-14T18:42:12.477Z,14.65
2023-04-14T18:45:01.965Z,14.66
2023-04-14T18:47:51.258Z,14.54
2023-04-14T18:50:40.961Z,14.34
2023-04-14T18:53:30.453Z,14.14
2023-04-14T18:56:21.534Z,14.12
2023-04-14T18:59:11.463Z,14.00
2023-04-14T19:02:00.818Z,13.86
2023-04-14T19:04:50.236Z,13.85
2023-04-14T19:07:39.472Z,13.82
2023-04-14T19:10:28.750Z,13.66
2023-04-14T19:13:19.791Z,13.64
2023-04-14T19:16:11.737Z,13.49
2023-04-14T19:19:03.879Z,13.39
2023-04-14T19:21:53.522Z,13.35
2023-04-14T19:24:42.845Z,13.28
2023-04-14T19:27:33.096Z,13.24
2023-04-14T19:30:24.525Z,13.11
2023-04-14T19:33:15.595Z,13.00
2023-04-14T19:36:11.955Z,13.03
2023-04-14T19:39:01.557Z,13.04
2023-04-14T19:41:50.973Z,12.97
2023-04-14T19:44:40.123Z,12.97
2023-04-14T19:47:31.817Z,12.95
2023-04-14T19:50:22.850Z,12.87
2023-04-14T19:53:12.149Z,12.81
2023-04-14T19:56:02.141Z,12.76
2023-04-14T19:58:51.897Z,12.75
2023-04-14T20:01:42.447Z,12.71
2023-04-14T20:04:33.354Z,12.56
2023-04-14T20:07:22.689Z,12.59
2023-04-14T20:10:12.496Z,12.52
2023-04-14T20:13:01.702Z,12.43
2023-04-14T20:15:54.251Z,12.33
2023-04-14T20:18:45.566Z,12.20
2023-04-14T20:21:36.562Z,12.28
2023-04-14T20:24:25.943Z,12.14
2023-04-14T20:27:15.195Z,12.12
2023-04-14T20:30:04.801Z,12.00
2023-04-14T20:32:54.308Z,11.98
2023-04-14T20:35:43.914Z,11.97
2023-04-14T20:38:34.659Z,11.91
2023-04-14T20:41:23.865Z,11.87
2023-04-14T20:44:13.180Z,11.77
2023-04-14T20:47:03.974Z,11.72
2023-04-14T20:49:53.192Z,11.68
2023-04-14T20:52:42.876Z,11.67
2023-04-14T20:55:33.712Z,11.63
2023-04-14T20:58:23.231Z,11.59
2023-04-14T21:01:12.665Z,11.54
2023-04-14T21:04:02.061Z,11.45
2023-04-14T21:06:52.276Z,11.50
2023-04-14T21:09:41.883Z,11.43
2023-04-14T21:12:35.926Z,11.42
2023-04-14T21:15:49.995Z,11.34
2023-04-14T21:18:34.745Z,11.30
2023-04-14T21:21:24.223Z,11.17
2023-04-14T21:24:13.798Z,11.21
2023-04-14T21:27:03.618Z,11.15
2023-04-14T21:29:54.308Z,11.12
2023-04-14T21:32:43.790Z,11.06
2023-04-14T21:35:33.187Z,11.05
2023-04-14T21:38:22.755Z,10.98
2023-04-14T21:41:12.518Z,11.00
2023-04-14T21:44:01.970Z,10.92
2023-04-14T21:46:53.257Z,10.95
2023-04-14T21:49:42.535Z,10.54
2023-04-14T21:52:31.868Z,10.89
2023-04-14T21:55:21.116Z,10.89
2023-04-14T21:58:10.578Z,10.86
2023-04-14T22:01:00.614Z,10.83
2023-04-14T22:03:51.916Z,10.80
2023-04-14T22:06:43.760Z,10.72
2023-04-14T22:09:33.372Z,10.69
2023-04-14T22:12:22.731Z,10.75
2023-04-14T22:15:12.312Z,10.71
2023-04-14T22:18:01.908Z,10.63
2023-04-14T22:20:52.706Z,10.56
2023-04-14T22:23:43.600Z,10.55
2023-04-14T22:26:33.389Z,10.60
2023-04-14T22:29:23.047Z,10.47
2023-04-14T22:32:12.440Z,10.50
2023-04-14T22:35:01.972Z,10.46
2023-04-14T22:37:53.540Z,10.43
2023-04-14T22:40:42.913Z,10.33
2023-04-14T22:43:32.275Z,10.29
2023-04-14T22:46:22.089Z,10.24
2023-04-14T22:49:12.725Z,10.34
2023-04-14T22:52:02.030Z,10.32
2023-04-14T22:54:52.850Z,10.26
2023-04-14T22:57:41.956Z,10.21
2023-04-14T23:00:31.560Z,10.15
2023-04-14T23:03:21.577Z,10.23
2023-04-14T23:06:11.122Z,10.21
2023-04-14T23:09:00.969Z,9.89
2023-04-14T23:11:52.149Z,10.16
2023-04-14T23:14:42.131Z,10.13
2023-04-14T23:17:32.445Z,9.98
2023-04-14T23:20:22.164Z,10.04
2023-04-14T23:23:12.534Z,9.81
2023-04-14T23:26:01.830Z,9.96
2023-04-14T23:28:53.170Z,9.91
2023-04-14T23:31:42.390Z,9.87
2023-04-14T23:34:31.773Z,9.88
2023-04-14T23:37:21.281Z,9.86
2023-04-14T23:40:12.294Z,9.81
2023-04-14T23:43:03.589Z,9.75
2023-04-14T23:45:54.417Z,9.74
2023-04-14T23:48:43.769Z,9.71
2023-04-14T23:51:35.177Z,9.68
2023-04-14T23:54:24.430Z,9.61
2023-04-14T23:57:14.478Z,9.59
